Time;durP1;ratioP1;P1;durP2;ratioP2;P2;SDS_P1;SDS_P2;PMS_P1;PMS_P2;Temp;Humidity;BMP_temperature;BMP_pressure;BME280_temperature;BME280_humidity;BME280_pressure;Samples;Min_cycle;Max_cycle;Signal;HPM_P1;HPM_P2
2021/11/13 00:02:21;;;;;;;17.02;10.25;;;;;;;;;;5055515;28;20248;-82
2021/11/13 00:04:47;;;;;;;17.08;10.13;;;;;;;;;;5057415;28;20217;-80
2021/11/13 00:07:13;;;;;;;13.53;9.50;;;;;;;;;;5060643;28;20185;-80
2021/11/13 00:09:39;;;;;;;19.90;9.20;;;;;;;;;;5055327;28;20896;-80
2021/11/13 00:12:05;;;;;;;14.65;8.73;;;;;;;;;;5058052;28;20490;-81
2021/11/13 00:14:32;;;;;;;14.15;9.15;;;;;;;;;;5062571;28;20323;-80
2021/11/13 00:16:59;;;;;;;12.13;8.25;;;;;;;;;;5061086;28;20185;-78
2021/11/13 00:19:25;;;;;;;12.60;8.15;;;;;;;;;;5059175;28;20177;-79
2021/11/13 00:21:51;;;;;;;12.70;7.90;;;;;;;;;;5055461;28;20221;-78
2021/11/13 00:24:17;;;;;;;14.45;8.48;;;;;;;;;;5056897;28;20455;-80
2021/11/13 00:26:43;;;;;;;15.10;8.75;;;;;;;;;;5068605;28;20185;-80
2021/11/13 00:29:09;;;;;;;11.80;7.82;;;;;;;;;;5053468;28;20221;-80
2021/11/13 00:31:35;;;;;;;17.07;8.90;;;;;;;;;;5059318;28;20232;-79
2021/11/13 00:34:02;;;;;;;17.83;8.65;;;;;;;;;;5057005;28;20437;-80
2021/11/13 00:36:28;;;;;;;12.63;7.35;;;;;;;;;;5056198;28;20348;-79
2021/11/13 00:38:55;;;;;;;17.05;7.22;;;;;;;;;;5059913;28;20165;-79
2021/11/13 00:41:21;;;;;;;12.73;7.20;;;;;;;;;;5061263;28;20256;-80
2021/11/13 00:43:47;;;;;;;15.07;7.90;;;;;;;;;;5055844;28;20190;-79
2021/11/13 00:46:13;;;;;;;13.40;8.30;;;;;;;;;;5056126;28;20448;-79
2021/11/13 00:48:39;;;;;;;13.77;6.53;;;;;;;;;;5058829;28;20189;-79
2021/11/13 00:51:05;;;;;;;14.13;7.80;;;;;;;;;;5056445;28;20221;-79
2021/11/13 00:53:32;;;;;;;11.07;7.07;;;;;;;;;;5061665;28;20208;-81
2021/11/13 00:55:59;;;;;;;16.83;8.00;;;;;;;;;;5055739;28;20436;-80
2021/11/13 00:58:25;;;;;;;18.15;7.97;;;;;;;;;;5069035;28;20244;-80
2021/11/13 01:00:51;;;;;;;16.45;6.43;;;;;;;;;;5054349;28;20190;-80
2021/11/13 01:03:17;;;;;;;10.02;6.40;;;;;;;;;;5057775;28;20184;-80
2021/11/13 01:05:43;;;;;;;11.90;6.32;;;;;;;;;;5058550;28;20177;-79
2021/11/13 01:08:09;;;;;;;14.25;6.75;;;;;;;;;;5060466;28;20681;-79
2021/11/13 01:10:35;;;;;;;11.35;7.07;;;;;;;;;;5056737;28;20253;-78
2021/11/13 01:13:01;;;;;;;13.80;6.65;;;;;;;;;;5056472;28;20182;-79
2021/11/13 01:15:27;;;;;;;13.43;7.27;;;;;;;;;;5059642;28;20177;-79
2021/11/13 01:17:53;;;;;;;18.20;8.15;;;;;;;;;;5058695;28;20408;-79
2021/11/13 01:20:20;;;;;;;9.25;7.03;;;;;;;;;;5059937;28;20207;-79
2021/11/13 01:22:46;;;;;;;15.70;7.45;;;;;;;;;;5060613;28;20181;-80
2021/11/13 01:25:13;;;;;;;19.48;7.45;;;;;;;;;;5061324;28;20576;-79
2021/11/13 01:27:40;;;;;;;10.32;6.05;;;;;;;;;;5055774;28;20194;-80
2021/11/13 01:30:07;;;;;;;10.43;5.90;;;;;;;;;;5061503;28;20190;-80
2021/11/13 01:32:33;;;;;;;12.23;5.85;;;;;;;;;;5055421;28;20184;-79
2021/11/13 01:34:59;;;;;;;17.33;7.20;;;;;;;;;;5059424;28;20190;-79
2021/11/13 01:37:25;;;;;;;10.65;6.18;;;;;;;;;;5059757;28;20177;-79
2021/11/13 01:39:51;;;;;;;13.63;6.28;;;;;;;;;;5055849;28;20189;-79
2021/11/13 01:42:17;;;;;;;12.10;6.10;;;;;;;;;;5057101;28;20645;-78
2021/11/13 01:44:44;;;;;;;10.82;6.22;;;;;;;;;;5057450;28;20446;-80
2021/11/13 01:47:10;;;;;;;12.20;6.15;;;;;;;;;;5053118;28;20424;-79
2021/11/13 01:49:37;;;;;;;12.10;5.90;;;;;;;;;;5059070;28;20233;-79
2021/11/13 01:52:10;;;;;;;10.07;5.65;;;;;;;;;;5059149;28;20533;-78
2021/11/13 01:54:39;;;;;;;8.60;5.90;;;;;;;;;;5054374;28;20197;-79
2021/11/13 01:57:09;;;;;;;11.45;6.55;;;;;;;;;;5057543;28;20165;-79
2021/11/13 01:59:35;;;;;;;11.05;6.10;;;;;;;;;;5057213;28;20184;-78
2021/11/13 02:02:01;;;;;;;11.25;5.85;;;;;;;;;;5064343;28;20551;-80
2021/11/13 02:04:27;;;;;;;10.00;5.60;;;;;;;;;;5061520;28;20190;-79
2021/11/13 02:06:53;;;;;;;12.43;5.83;;;;;;;;;;5061950;28;20774;-79
2021/11/13 02:09:19;;;;;;;13.10;5.10;;;;;;;;;;5060013;28;20438;-78
2021/11/13 02:11:45;;;;;;;11.40;5.65;;;;;;;;;;5058059;28;20481;-79
2021/11/13 02:14:11;;;;;;;12.27;5.73;;;;;;;;;;5064393;28;20181;-80
2021/11/13 02:16:37;;;;;;;18.17;6.00;;;;;;;;;;5058982;28;20493;-79
2021/11/13 02:19:03;;;;;;;12.27;5.27;;;;;;;;;;5059513;28;20186;-78
2021/11/13 02:21:29;;;;;;;11.20;5.40;;;;;;;;;;5057982;28;20447;-79
2021/11/13 02:23:55;;;;;;;8.52;5.10;;;;;;;;;;5074434;28;20177;-79
2021/11/13 02:26:22;;;;;;;10.55;5.57;;;;;;;;;;5058775;28;20207;-80
2021/11/13 02:28:49;;;;;;;12.32;4.72;;;;;;;;;;5058343;28;20184;-79
2021/11/13 02:31:15;;;;;;;13.23;5.70;;;;;;;;;;5062351;28;20205;-79
2021/11/13 02:33:41;;;;;;;11.18;4.90;;;;;;;;;;5056385;28;20181;-79
2021/11/13 02:36:08;;;;;;;17.83;5.75;;;;;;;;;;5054755;28;20172;-79
2021/11/13 02:38:36;;;;;;;11.82;5.32;;;;;;;;;;5064146;28;20196;-79
2021/11/13 02:41:03;;;;;;;11.00;4.60;;;;;;;;;;5063640;28;20188;-78
2021/11/13 02:43:32;;;;;;;10.48;5.05;;;;;;;;;;5061711;28;20598;-80
2021/11/13 02:45:59;;;;;;;8.35;4.55;;;;;;;;;;5061489;28;20186;-79
2021/11/13 02:48:26;;;;;;;12.00;4.95;;;;;;;;;;5058838;28;20185;-79
2021/11/13 02:50:52;;;;;;;10.55;5.38;;;;;;;;;;5059052;28;20204;-79
2021/11/13 02:53:22;;;;;;;9.00;4.80;;;;;;;;;;5058686;28;20180;-79
2021/11/13 02:55:49;;;;;;;11.00;6.40;;;;;;;;;;5057802;28;20202;-79
2021/11/13 02:58:15;;;;;;;6.93;3.85;;;;;;;;;;5059184;28;20277;-80
2021/11/13 03:00:42;;;;;;;8.73;4.25;;;;;;;;;;5062249;28;20212;-80
2021/11/13 03:03:08;;;;;;;8.65;4.20;;;;;;;;;;5058916;28;20458;-80
2021/11/13 03:05:36;;;;;;;13.82;4.30;;;;;;;;;;5062868;28;20403;-80
2021/11/13 03:08:03;;;;;;;8.18;4.85;;;;;;;;;;5063216;28;20236;-77
2021/11/13 03:10:31;;;;;;;9.48;4.00;;;;;;;;;;5058281;28;20738;-80
2021/11/13 03:12:57;;;;;;;12.00;5.90;;;;;;;;;;5061698;28;20236;-79
2021/11/13 03:15:24;;;;;;;8.55;4.45;;;;;;;;;;5056239;28;20177;-79
2021/11/13 03:17:51;;;;;;;14.45;4.80;;;;;;;;;;5058961;28;20181;-80
2021/11/13 03:20:18;;;;;;;8.85;4.53;;;;;;;;;;5057238;28;20253;-80
2021/11/13 03:22:44;;;;;;;9.75;4.45;;;;;;;;;;5052654;28;20189;-80
2021/11/13 03:25:12;;;;;;;10.15;4.00;;;;;;;;;;5051597;28;20200;-80
2021/11/13 03:27:38;;;;;;;12.55;4.43;;;;;;;;;;5056027;28;20186;-80
2021/11/13 03:30:06;;;;;;;12.75;3.97;;;;;;;;;;5058114;28;20157;-80
2021/11/13 03:32:32;;;;;;;9.20;5.07;;;;;;;;;;5062717;28;20188;-79
2021/11/13 03:34:58;;;;;;;7.15;3.85;;;;;;;;;;5062942;28;20185;-79
2021/11/13 03:37:24;;;;;;;10.00;3.47;;;;;;;;;;5062667;28;20300;-79
2021/11/13 03:39:50;;;;;;;12.13;3.90;;;;;;;;;;5061077;28;20678;-79
2021/11/13 03:42:16;;;;;;;7.32;3.70;;;;;;;;;;5057885;28;20446;-79
2021/11/13 03:44:43;;;;;;;12.02;3.80;;;;;;;;;;5056241;28;20719;-81
2021/11/13 03:47:09;;;;;;;9.38;4.38;;;;;;;;;;5062057;28;20249;-81
2021/11/13 03:49:35;;;;;;;8.40;3.97;;;;;;;;;;5059416;28;20216;-80
2021/11/13 03:52:00;;;;;;;6.03;2.93;;;;;;;;;;5057250;28;20201;-80
2021/11/13 03:54:27;;;;;;;10.60;4.17;;;;;;;;;;5056304;28;20517;-79
2021/11/13 03:56:53;;;;;;;10.15;3.88;;;;;;;;;;5048706;28;20428;-78
2021/11/13 03:59:23;;;;;;;7.67;3.53;;;;;;;;;;5052335;28;20177;-80
2021/11/13 04:01:49;;;;;;;6.38;3.03;;;;;;;;;;5054473;28;20447;-81
2021/11/13 04:04:15;;;;;;;8.23;3.10;;;;;;;;;;5059792;28;20247;-80
2021/11/13 04:06:40;;;;;;;5.93;3.17;;;;;;;;;;5059632;28;20964;-79
2021/11/13 04:09:06;;;;;;;6.30;3.00;;;;;;;;;;5060022;28;20189;-81
2021/11/13 04:11:32;;;;;;;5.90;2.50;;;;;;;;;;5062324;28;20490;-80
2021/11/13 04:13:58;;;;;;;4.38;2.53;;;;;;;;;;5057278;28;20193;-80
2021/11/13 04:16:24;;;;;;;14.13;2.57;;;;;;;;;;5060297;28;20196;-79
2021/11/13 04:18:51;;;;;;;4.20;2.30;;;;;;;;;;5056359;28;20447;-81
2021/11/13 04:21:17;;;;;;;7.65;3.13;;;;;;;;;;5056325;28;20714;-80
2021/11/13 04:23:44;;;;;;;4.05;2.05;;;;;;;;;;5055621;28;20216;-80
2021/11/13 04:26:10;;;;;;;8.80;2.80;;;;;;;;;;5054294;28;20186;-79
2021/11/13 04:28:37;;;;;;;8.90;2.42;;;;;;;;;;5060803;28;20193;-80
2021/11/13 04:31:03;;;;;;;5.13;3.00;;;;;;;;;;5060418;28;20201;-80
2021/11/13 04:33:29;;;;;;;5.13;2.28;;;;;;;;;;5056898;28;20642;-80
2021/11/13 04:36:16;;;;;;;9.20;2.95;;;;;;;;;;5048835;28;20561;-80
2021/11/13 04:38:42;;;;;;;6.00;2.50;;;;;;;;;;5057633;28;20175;-80
2021/11/13 04:41:09;;;;;;;6.95;2.90;;;;;;;;;;5061571;28;20212;-80
2021/11/13 04:43:36;;;;;;;10.07;3.20;;;;;;;;;;5059947;28;20189;-80
2021/11/13 04:46:02;;;;;;;6.05;2.65;;;;;;;;;;5058984;28;20196;-81
2021/11/13 04:48:28;;;;;;;10.50;3.08;;;;;;;;;;5059940;28;20588;-81
2021/11/13 04:50:57;;;;;;;7.30;3.53;;;;;;;;;;5052373;28;20227;-80
2021/11/13 04:53:23;;;;;;;10.98;3.10;;;;;;;;;;5055352;28;20466;-80
2021/11/13 04:55:49;;;;;;;8.43;2.88;;;;;;;;;;5061468;28;20181;-81
2021/11/13 04:58:15;;;;;;;6.83;3.03;;;;;;;;;;5057460;28;20323;-80
2021/11/13 05:00:41;;;;;;;9.50;2.90;;;;;;;;;;5060089;28;20466;-79
2021/11/13 05:03:07;;;;;;;7.15;3.28;;;;;;;;;;5057050;28;20196;-80
2021/11/13 05:05:33;;;;;;;7.93;2.95;;;;;;;;;;5061354;28;20196;-78
2021/11/13 05:07:59;;;;;;;7.95;3.15;;;;;;;;;;5054334;28;20224;-80
2021/11/13 05:10:25;;;;;;;8.07;3.65;;;;;;;;;;5060126;28;20224;-81
2021/11/13 05:12:51;;;;;;;4.85;3.63;;;;;;;;;;5054838;28;20331;-80
2021/11/13 05:15:18;;;;;;;7.68;2.85;;;;;;;;;;5060961;28;20173;-80
2021/11/13 05:17:44;;;;;;;6.63;2.70;;;;;;;;;;5070240;28;20200;-81
2021/11/13 05:20:11;;;;;;;9.38;2.90;;;;;;;;;;5053540;28;20682;-79
2021/11/13 05:22:38;;;;;;;11.68;2.80;;;;;;;;;;5052128;28;20177;-80
2021/11/13 05:25:05;;;;;;;9.35;2.67;;;;;;;;;;5057752;28;20182;-79
2021/11/13 05:27:31;;;;;;;9.38;3.20;;;;;;;;;;5055845;28;20173;-81
2021/11/13 05:29:57;;;;;;;6.57;2.95;;;;;;;;;;5060422;28;20181;-80
2021/11/13 05:32:23;;;;;;;9.00;2.83;;;;;;;;;;5056439;28;20200;-81
2021/11/13 05:34:49;;;;;;;6.70;2.80;;;;;;;;;;5064498;28;20435;-80
2021/11/13 05:37:15;;;;;;;6.95;2.38;;;;;;;;;;5063420;28;20212;-79
2021/11/13 05:39:41;;;;;;;6.00;2.10;;;;;;;;;;5058192;28;20285;-81
2021/11/13 05:42:07;;;;;;;5.45;2.20;;;;;;;;;;5060320;28;20208;-80
2021/11/13 05:44:34;;;;;;;2.80;2.08;;;;;;;;;;5065174;28;20197;-78
2021/11/13 05:47:01;;;;;;;5.75;2.30;;;;;;;;;;5057272;28;20185;-78
2021/11/13 05:49:27;;;;;;;4.47;2.15;;;;;;;;;;5062754;28;20193;-80
2021/11/13 05:51:53;;;;;;;5.30;2.10;;;;;;;;;;5059734;28;20201;-81
2021/11/13 05:54:19;;;;;;;2.80;1.57;;;;;;;;;;5063241;28;20817;-81
2021/11/13 05:56:45;;;;;;;5.00;1.80;;;;;;;;;;5057749;28;20494;-81
2021/11/13 05:59:11;;;;;;;8.57;1.80;;;;;;;;;;5062962;28;20207;-80
2021/11/13 06:01:37;;;;;;;4.90;1.67;;;;;;;;;;5060409;28;20190;-81
2021/11/13 06:04:03;;;;;;;4.22;1.88;;;;;;;;;;5062490;28;20193;-80
2021/11/13 06:06:29;;;;;;;8.43;1.55;;;;;;;;;;5063373;28;20272;-81
2021/11/13 06:08:55;;;;;;;4.83;2.03;;;;;;;;;;5062376;28;20226;-80
2021/11/13 06:11:21;;;;;;;4.37;2.60;;;;;;;;;;5057322;28;20490;-80
2021/11/13 06:13:47;;;;;;;3.97;1.45;;;;;;;;;;5064471;28;20432;-81
2021/11/13 06:16:13;;;;;;;4.75;1.50;;;;;;;;;;5060246;28;20212;-81
2021/11/13 06:18:39;;;;;;;8.43;1.70;;;;;;;;;;5061667;28;20193;-80
2021/11/13 06:21:06;;;;;;;4.93;1.40;;;;;;;;;;5055343;28;20191;-81
2021/11/13 06:23:33;;;;;;;6.88;1.55;;;;;;;;;;5058225;28;20177;-81
2021/11/13 06:25:59;;;;;;;4.78;1.80;;;;;;;;;;5063875;28;20257;-79
2021/11/13 06:28:25;;;;;;;3.88;1.58;;;;;;;;;;5060801;28;20252;-80
2021/11/13 06:30:51;;;;;;;4.20;1.33;;;;;;;;;;5062634;28;20243;-79
2021/11/13 06:33:17;;;;;;;5.07;1.40;;;;;;;;;;5064603;28;20897;-79
2021/11/13 06:35:43;;;;;;;4.13;1.65;;;;;;;;;;5074065;28;20170;-80
2021/11/13 06:38:09;;;;;;;5.30;2.65;;;;;;;;;;5054160;28;20185;-81
2021/11/13 06:40:35;;;;;;;5.38;1.63;;;;;;;;;;5063465;28;20193;-78
2021/11/13 06:43:01;;;;;;;3.08;1.95;;;;;;;;;;5062234;28;20647;-80
2021/11/13 06:45:27;;;;;;;11.60;2.38;;;;;;;;;;5057539;28;20173;-80
2021/11/13 06:47:53;;;;;;;5.75;1.45;;;;;;;;;;5064354;28;20173;-80
2021/11/13 06:50:20;;;;;;;4.20;1.50;;;;;;;;;;5062846;28;20184;-77
2021/11/13 06:52:47;;;;;;;5.38;1.30;;;;;;;;;;5060285;28;20265;-79
2021/11/13 06:55:13;;;;;;;5.55;1.70;;;;;;;;;;5060128;28;20277;-82
2021/11/13 06:57:40;;;;;;;3.25;1.30;;;;;;;;;;5055624;28;20257;-79
2021/11/13 07:00:07;;;;;;;2.20;1.20;;;;;;;;;;5059668;28;20165;-80
2021/11/13 07:02:33;;;;;;;4.97;1.50;;;;;;;;;;5068843;28;20251;-79
2021/11/13 07:04:59;;;;;;;4.95;1.40;;;;;;;;;;5061596;28;20249;-79
2021/11/13 07:07:26;;;;;;;3.90;1.75;;;;;;;;;;5060948;28;20481;-78
2021/11/13 07:09:52;;;;;;;7.15;1.50;;;;;;;;;;5055969;28;20186;-80
2021/11/13 07:12:18;;;;;;;6.03;1.60;;;;;;;;;;5056715;28;20212;-79
2021/11/13 07:14:44;;;;;;;4.85;1.80;;;;;;;;;;5061307;28;20176;-79
2021/11/13 07:17:10;;;;;;;5.20;1.30;;;;;;;;;;5062804;28;20177;-82
2021/11/13 07:19:36;;;;;;;1.98;1.10;;;;;;;;;;5059855;28;20177;-83
2021/11/13 07:22:02;;;;;;;2.08;1.42;;;;;;;;;;5057763;28;20185;-84
2021/11/13 07:24:28;;;;;;;2.20;1.10;;;;;;;;;;5055612;28;20645;-81
2021/11/13 07:26:54;;;;;;;3.30;1.42;;;;;;;;;;5058389;28;20183;-81
2021/11/13 07:29:24;;;;;;;2.10;1.17;;;;;;;;;;5060101;28;20197;-82
2021/11/13 07:31:50;;;;;;;2.88;1.48;;;;;;;;;;5050648;28;20466;-82
2021/11/13 07:34:16;;;;;;;3.72;1.10;;;;;;;;;;5061582;28;20189;-81
2021/11/13 07:36:42;;;;;;;1.10;0.82;;;;;;;;;;5061495;28;20316;-82
2021/11/13 07:39:08;;;;;;;1.40;1.00;;;;;;;;;;5053464;28;20618;-82
2021/11/13 07:41:34;;;;;;;2.40;1.30;;;;;;;;;;5062605;28;20442;-82
2021/11/13 07:44:00;;;;;;;4.30;1.30;;;;;;;;;;5062781;28;20248;-80
2021/11/13 07:46:26;;;;;;;4.50;1.50;;;;;;;;;;5059280;28;20183;-82
2021/11/13 07:48:52;;;;;;;4.22;1.20;;;;;;;;;;5058760;28;20178;-82
2021/11/13 07:51:20;;;;;;;1.15;0.93;;;;;;;;;;5052497;28;20208;-81
2021/11/13 07:53:47;;;;;;;1.10;1.00;;;;;;;;;;5054372;28;20181;-82
2021/11/13 07:56:13;;;;;;;1.38;1.10;;;;;;;;;;5048190;28;20181;-83
2021/11/13 07:58:39;;;;;;;4.93;1.73;;;;;;;;;;5057036;28;20248;-83
2021/11/13 08:01:05;;;;;;;1.75;1.10;;;;;;;;;;5057966;28;20194;-82
2021/11/13 08:03:31;;;;;;;2.13;1.10;;;;;;;;;;5057977;28;20216;-82
2021/11/13 08:05:57;;;;;;;3.83;1.10;;;;;;;;;;5058609;28;20186;-82
2021/11/13 08:08:24;;;;;;;1.65;0.93;;;;;;;;;;5055093;28;20424;-82
2021/11/13 08:10:50;;;;;;;2.97;1.02;;;;;;;;;;5056870;28;20276;-84
2021/11/13 08:13:17;;;;;;;2.55;1.38;;;;;;;;;;5054034;28;20177;-79
2021/11/13 08:15:43;;;;;;;3.78;1.50;;;;;;;;;;5072481;28;20178;-82
2021/11/13 08:18:10;;;;;;;2.05;1.30;;;;;;;;;;5051924;28;20213;-82
2021/11/13 08:20:36;;;;;;;3.78;1.40;;;;;;;;;;5054518;28;20764;-83
2021/11/13 08:23:04;;;;;;;4.05;1.25;;;;;;;;;;5057660;28;20272;-84
2021/11/13 08:25:31;;;;;;;2.17;1.40;;;;;;;;;;5059007;28;20185;-82
2021/11/13 08:27:57;;;;;;;3.35;1.27;;;;;;;;;;5052508;28;20185;-83
2021/11/13 08:30:28;;;;;;;1.35;1.25;;;;;;;;;;5053669;28;20204;-81
2021/11/13 08:32:54;;;;;;;2.50;1.25;;;;;;;;;;5056960;28;20169;-83
2021/11/13 08:35:20;;;;;;;2.55;1.40;;;;;;;;;;5056427;28;20211;-83
2021/11/13 08:37:46;;;;;;;3.05;1.10;;;;;;;;;;5060196;28;20245;-84
2021/11/13 08:40:12;;;;;;;2.17;0.90;;;;;;;;;;5059455;28;20181;-82
2021/11/13 08:42:38;;;;;;;1.10;1.00;;;;;;;;;;5061008;28;20196;-83
2021/11/13 08:45:07;;;;;;;3.35;1.10;;;;;;;;;;5056921;28;20237;-82
2021/11/13 08:47:34;;;;;;;3.63;1.20;;;;;;;;;;5054037;28;20200;-83
2021/11/13 08:50:00;;;;;;;3.10;1.20;;;;;;;;;;5056702;28;20776;-83
2021/11/13 08:52:26;;;;;;;4.00;0.95;;;;;;;;;;5056445;28;20216;-82
2021/11/13 08:54:52;;;;;;;2.35;1.20;;;;;;;;;;5060085;28;20193;-81
2021/11/13 08:57:18;;;;;;;2.05;1.40;;;;;;;;;;5061249;28;20204;-83
2021/11/13 08:59:44;;;;;;;2.13;1.20;;;;;;;;;;5071543;28;20760;-83
2021/11/13 09:02:13;;;;;;;3.60;1.52;;;;;;;;;;5056236;28;20667;-80
2021/11/13 09:04:41;;;;;;;3.45;1.48;;;;;;;;;;5061127;28;20288;-83
2021/11/13 09:07:08;;;;;;;4.40;1.58;;;;;;;;;;5055910;28;20274;-81
2021/11/13 09:09:37;;;;;;;1.45;1.15;;;;;;;;;;5049257;28;20185;-82
2021/11/13 09:12:04;;;;;;;2.60;1.50;;;;;;;;;;5060639;28;20237;-81
2021/11/13 09:14:32;;;;;;;2.70;1.35;;;;;;;;;;5061180;28;20185;-81
2021/11/13 09:16:59;;;;;;;5.05;1.75;;;;;;;;;;5061005;28;20630;-82
2021/11/13 09:19:25;;;;;;;4.15;1.50;;;;;;;;;;5050133;28;20186;-82
2021/11/13 09:21:52;;;;;;;2.97;1.48;;;;;;;;;;5049652;28;20189;-82
2021/11/13 09:24:18;;;;;;;2.53;1.30;;;;;;;;;;5054897;28;20185;-84
2021/11/13 09:26:44;;;;;;;5.63;1.95;;;;;;;;;;5058753;28;20208;-85
2021/11/13 09:29:10;;;;;;;2.97;1.90;;;;;;;;;;5058227;28;20181;-83
2021/11/13 09:31:41;;;;;;;1.80;1.30;;;;;;;;;;5059059;28;20204;-84
2021/11/13 09:34:08;;;;;;;3.20;1.67;;;;;;;;;;5054583;28;20544;-82
2021/11/13 09:36:34;;;;;;;2.50;1.60;;;;;;;;;;5054079;28;20181;-81
2021/11/13 09:39:00;;;;;;;3.70;1.95;;;;;;;;;;5056923;28;20177;-82
2021/11/13 09:41:26;;;;;;;6.22;1.45;;;;;;;;;;5055175;28;20209;-82
2021/11/13 09:43:52;;;;;;;5.45;2.35;;;;;;;;;;5054755;28;20189;-84
2021/11/13 09:46:18;;;;;;;3.97;2.05;;;;;;;;;;5051372;28;20259;-81
2021/11/13 09:48:44;;;;;;;1.63;1.52;;;;;;;;;;5050216;28;20214;-82
2021/11/13 09:51:11;;;;;;;2.50;1.90;;;;;;;;;;5071030;28;20201;-81
2021/11/13 09:53:38;;;;;;;3.75;1.90;;;;;;;;;;5060729;28;20191;-82
2021/11/13 09:56:04;;;;;;;3.55;1.90;;;;;;;;;;5055598;28;20207;-82
2021/11/13 09:58:30;;;;;;;3.90;1.77;;;;;;;;;;5057630;28;20182;-81
2021/11/13 10:00:57;;;;;;;3.97;1.88;;;;;;;;;;5055953;28;20615;-82
2021/11/13 10:03:23;;;;;;;2.38;2.17;;;;;;;;;;5059628;28;20702;-83
2021/11/13 10:05:50;;;;;;;2.20;2.00;;;;;;;;;;5058226;28;20174;-83
2021/11/13 10:08:17;;;;;;;4.55;2.75;;;;;;;;;;5056036;28;20190;-82
2021/11/13 10:10:43;;;;;;;4.30;2.13;;;;;;;;;;5057384;28;20248;-81
2021/11/13 10:13:41;;;;;;;4.15;2.38;;;;;;;;;;5058378;28;20185;-80
2021/11/13 10:16:10;;;;;;;2.30;1.92;;;;;;;;;;5021243;28;20229;-82
2021/11/13 10:18:42;;;;;;;2.65;2.15;;;;;;;;;;5024286;28;20182;-81
2021/11/13 10:21:13;;;;;;;5.90;1.90;;;;;;;;;;5027417;28;20563;-82
2021/11/13 10:23:59;;;;;;;5.05;1.77;;;;;;;;;;5043137;28;20222;-82
2021/11/13 10:26:25;;;;;;;4.15;2.50;;;;;;;;;;5026428;28;20198;-82
2021/11/13 10:28:58;;;;;;;3.65;1.90;;;;;;;;;;5021817;28;20203;-80
2021/11/13 10:31:32;;;;;;;5.30;2.70;;;;;;;;;;5025564;28;20261;-81
2021/11/13 10:34:00;;;;;;;4.22;2.45;;;;;;;;;;5042997;28;20244;-81
2021/11/13 10:36:28;;;;;;;2.95;2.53;;;;;;;;;;5043621;28;20206;-82
2021/11/13 10:38:58;;;;;;;4.35;2.20;;;;;;;;;;5026790;28;20261;-81
2021/11/13 10:41:24;;;;;;;3.50;2.28;;;;;;;;;;5026654;28;20183;-81
2021/11/13 10:43:50;;;;;;;5.85;2.97;;;;;;;;;;5042914;28;20225;-81
2021/11/13 10:46:18;;;;;;;3.72;2.25;;;;;;;;;;5042352;28;20202;-81
2021/11/13 10:48:46;;;;;;;3.28;2.13;;;;;;;;;;5042961;28;20287;-82
2021/11/13 10:51:14;;;;;;;3.88;2.28;;;;;;;;;;5029781;28;20209;-82
2021/11/13 10:53:43;;;;;;;3.60;2.72;;;;;;;;;;5055274;28;20215;-81
2021/11/13 10:56:11;;;;;;;7.68;1.92;;;;;;;;;;5064024;28;20181;-81
2021/11/13 10:58:55;;;;;;;4.00;2.47;;;;;;;;;;5063066;28;20313;-80
2021/11/13 11:01:25;;;;;;;5.68;2.20;;;;;;;;;;5048030;28;20187;-80
2021/11/13 11:03:51;;;;;;;3.72;2.30;;;;;;;;;;5061443;28;20192;-81
2021/11/13 11:06:37;;;;;;;5.10;2.28;;;;;;;;;;5060112;28;20184;-82
2021/11/13 11:09:13;;;;;;;3.28;2.03;;;;;;;;;;5076681;28;20175;-82
2021/11/13 11:11:39;;;;;;;3.47;1.85;;;;;;;;;;5056325;28;20292;-82
2021/11/13 11:14:06;;;;;;;2.72;2.00;;;;;;;;;;5061305;28;20185;-82
2021/11/13 11:16:33;;;;;;;3.15;1.98;;;;;;;;;;5061321;28;20177;-82
2021/11/13 11:19:01;;;;;;;5.25;1.90;;;;;;;;;;5058135;28;20193;-82
2021/11/13 11:21:46;;;;;;;3.70;1.80;;;;;;;;;;5057186;28;20634;-82
2021/11/13 11:24:17;;;;;;;4.28;2.35;;;;;;;;;;5066483;28;20191;-82
2021/11/13 11:26:44;;;;;;;2.38;2.17;;;;;;;;;;5056168;28;20792;-82
2021/11/13 11:29:11;;;;;;;3.92;2.83;;;;;;;;;;5053007;28;20198;-83
2021/11/13 11:32:03;;;;;;;3.25;2.30;;;;;;;;;;5060026;28;20204;-83
2021/11/13 11:34:31;;;;;;;4.80;2.00;;;;;;;;;;5048605;28;20192;-82
2021/11/13 11:36:58;;;;;;;5.07;2.10;;;;;;;;;;5058195;28;20182;-82
2021/11/13 11:39:26;;;;;;;3.35;1.90;;;;;;;;;;5056280;28;20341;-80
2021/11/13 11:41:52;;;;;;;9.05;2.83;;;;;;;;;;5058386;28;20231;-82
2021/11/13 11:44:19;;;;;;;2.45;2.05;;;;;;;;;;5061290;28;20193;-82
2021/11/13 11:46:46;;;;;;;3.08;2.17;;;;;;;;;;5057407;28;20241;-82
2021/11/13 11:49:13;;;;;;;4.13;2.25;;;;;;;;;;5059403;28;20636;-82
2021/11/13 11:51:39;;;;;;;3.30;2.05;;;;;;;;;;5055275;28;20211;-82
2021/11/13 11:54:06;;;;;;;5.88;2.47;;;;;;;;;;5063669;28;20174;-81
2021/11/13 11:56:32;;;;;;;5.50;2.55;;;;;;;;;;5050645;28;20190;-81
2021/11/13 11:59:00;;;;;;;4.55;1.50;;;;;;;;;;5054462;28;20237;-83
2021/11/13 12:01:31;;;;;;;3.88;1.65;;;;;;;;;;5054855;28;20184;-80
2021/11/13 12:04:16;;;;;;;2.10;1.80;;;;;;;;;;5055101;28;20199;-82
2021/11/13 12:06:42;;;;;;;5.60;2.05;;;;;;;;;;5056471;28;20211;-82
2021/11/13 12:09:08;;;;;;;4.70;1.77;;;;;;;;;;5062712;28;20549;-84
2021/11/13 12:11:36;;;;;;;2.95;1.75;;;;;;;;;;5058660;28;20689;-81
2021/11/13 12:14:21;;;;;;;2.17;1.35;;;;;;;;;;5059003;28;20543;-83
2021/11/13 12:16:47;;;;;;;2.78;1.50;;;;;;;;;;5049144;28;20185;-82
2021/11/13 12:19:15;;;;;;;2.83;1.60;;;;;;;;;;5053507;28;20659;-82
2021/11/13 12:21:52;;;;;;;1.63;1.42;;;;;;;;;;5052622;28;20180;-80
2021/11/13 12:24:17;;;;;;;3.15;1.63;;;;;;;;;;5062056;28;20192;-82
2021/11/13 12:26:57;;;;;;;4.47;1.80;;;;;;;;;;5070269;28;20215;-84
2021/11/13 12:29:23;;;;;;;3.63;2.08;;;;;;;;;;5062088;28;20437;-83
2021/11/13 12:31:51;;;;;;;9.00;2.38;;;;;;;;;;5061650;28;20549;-83
2021/11/13 12:34:18;;;;;;;3.08;1.88;;;;;;;;;;5060388;28;20195;-81
2021/11/13 12:36:49;;;;;;;3.67;1.80;;;;;;;;;;5056019;28;20187;-83
2021/11/13 12:39:16;;;;;;;8.32;2.00;;;;;;;;;;5075801;28;20173;-81
2021/11/13 12:41:42;;;;;;;3.90;1.42;;;;;;;;;;5054103;28;20316;-83
2021/11/13 12:44:11;;;;;;;4.95;2.60;;;;;;;;;;5054946;28;20201;-82
2021/11/13 12:47:03;;;;;;;6.45;3.10;;;;;;;;;;5058955;28;20185;-83
2021/11/13 12:49:31;;;;;;;4.53;2.85;;;;;;;;;;5048432;28;20192;-83
2021/11/13 12:51:57;;;;;;;2.60;2.15;;;;;;;;;;5048346;28;20206;-83
2021/11/13 12:54:26;;;;;;;4.07;1.87;;;;;;;;;;5048036;28;20184;-82
2021/11/13 12:57:28;;;;;;;4.32;2.78;;;;;;;;;;5069786;28;20424;-81
2021/11/13 12:59:54;;;;;;;5.88;2.53;;;;;;;;;;5057303;28;20181;-83
2021/11/13 13:02:20;;;;;;;6.70;2.13;;;;;;;;;;5041360;28;20208;-83
2021/11/13 13:04:47;;;;;;;4.30;1.73;;;;;;;;;;5061009;28;20444;-81
2021/11/13 13:07:13;;;;;;;3.75;1.95;;;;;;;;;;5040110;28;20193;-83
2021/11/13 13:09:57;;;;;;;2.47;1.50;;;;;;;;;;5038683;28;20206;-83
2021/11/13 13:12:24;;;;;;;9.00;2.33;;;;;;;;;;5044249;28;20210;-82
2021/11/13 13:15:01;;;;;;;6.40;1.73;;;;;;;;;;5043111;28;20497;-82
2021/11/13 13:17:30;;;;;;;3.47;1.70;;;;;;;;;;5054860;28;20200;-82
2021/11/13 13:19:56;;;;;;;3.97;2.45;;;;;;;;;;5054480;28;20236;-82
2021/11/13 13:22:22;;;;;;;3.75;2.00;;;;;;;;;;5042561;28;20199;-81
2021/11/13 13:24:54;;;;;;;4.30;2.33;;;;;;;;;;5044316;28;20183;-81
2021/11/13 13:27:21;;;;;;;3.88;2.00;;;;;;;;;;5042724;28;20189;-82
2021/11/13 13:29:52;;;;;;;2.75;1.73;;;;;;;;;;5058143;28;20188;-81
2021/11/13 13:32:18;;;;;;;4.00;1.40;;;;;;;;;;5056476;28;20212;-83
2021/11/13 13:34:55;;;;;;;7.05;2.20;;;;;;;;;;5055810;28;20239;-80
2021/11/13 13:37:27;;;;;;;3.55;2.58;;;;;;;;;;5055691;28;20176;-82
2021/11/13 13:39:54;;;;;;;2.97;1.83;;;;;;;;;;5052818;28;20239;-82
2021/11/13 13:42:30;;;;;;;2.85;1.40;;;;;;;;;;5055020;28;20550;-81
2021/11/13 13:44:56;;;;;;;5.93;1.30;;;;;;;;;;5074996;28;20245;-83
2021/11/13 13:47:26;;;;;;;3.83;1.50;;;;;;;;;;5051111;28;20176;-81
2021/11/13 13:49:54;;;;;;;1.92;1.67;;;;;;;;;;5059034;28;20618;-82
2021/11/13 13:52:20;;;;;;;1.98;1.77;;;;;;;;;;5055285;28;20202;-84
2021/11/13 13:54:46;;;;;;;3.15;1.30;;;;;;;;;;5072111;28;20503;-84
2021/11/13 13:57:18;;;;;;;2.55;1.50;;;;;;;;;;5061952;28;20169;-83
2021/11/13 13:59:46;;;;;;;2.70;1.48;;;;;;;;;;5054895;28;20190;-84
2021/11/13 14:02:16;;;;;;;4.10;1.40;;;;;;;;;;5053656;28;20188;-83
2021/11/13 14:04:44;;;;;;;2.90;1.80;;;;;;;;;;5064397;28;20193;-83
2021/11/13 14:07:21;;;;;;;3.60;1.55;;;;;;;;;;5060286;28;20186;-81
2021/11/13 14:09:50;;;;;;;2.97;2.03;;;;;;;;;;5057234;28;20231;-83
2021/11/13 14:12:16;;;;;;;4.00;1.45;;;;;;;;;;5062696;28;20232;-81
2021/11/13 14:14:42;;;;;;;2.92;1.60;;;;;;;;;;5055053;28;20209;-83
2021/11/13 14:17:35;;;;;;;5.53;2.30;;;;;;;;;;5063780;28;20193;-82
2021/11/13 14:20:01;;;;;;;4.50;1.77;;;;;;;;;;5059914;28;20459;-83
2021/11/13 14:22:27;;;;;;;1.98;1.73;;;;;;;;;;5060834;28;20204;-82
2021/11/13 14:24:58;;;;;;;3.17;1.80;;;;;;;;;;5058971;28;20189;-83
2021/11/13 14:27:24;;;;;;;7.28;3.08;;;;;;;;;;5054470;28;20268;-83
2021/11/13 14:29:55;;;;;;;4.67;2.17;;;;;;;;;;5062597;28;20655;-82
2021/11/13 14:32:21;;;;;;;3.17;2.75;;;;;;;;;;5063709;28;20471;-83
2021/11/13 14:34:47;;;;;;;6.07;3.60;;;;;;;;;;5059526;28;20182;-83
2021/11/13 14:37:14;;;;;;;4.45;3.03;;;;;;;;;;5060528;28;20811;-83
2021/11/13 14:39:42;;;;;;;5.15;2.38;;;;;;;;;;5060610;28;21087;-83
2021/11/13 14:42:15;;;;;;;4.70;3.03;;;;;;;;;;5060102;28;20185;-83
2021/11/13 14:44:42;;;;;;;3.15;2.10;;;;;;;;;;5064619;28;20187;-83